createdAt,value
2018-05-07T00:00:55.739Z,11.69
2018-05-07T00:03:26.496Z,11.82
2018-05-07T00:05:57.381Z,11.75
2018-05-07T00:08:28.263Z,11.58
2018-05-07T00:10:59.063Z,11.42
2018-05-07T00:13:29.846Z,11.31
2018-05-07T00:16:00.660Z,11.58
2018-05-07T00:18:31.452Z,11.57
2018-05-07T00:21:02.232Z,11.43
2018-05-07T00:23:33.003Z,11.53
2018-05-07T00:26:03.815Z,11.63
2018-05-07T00:28:34.584Z,11.44
2018-05-07T00:31:05.367Z,11.33
2018-05-07T00:33:36.152Z,11.42
2018-05-07T00:36:06.933Z,11.49
2018-05-07T00:38:37.716Z,11.36
2018-05-07T00:41:08.516Z,11.41
2018-05-07T00:43:39.284Z,11.58
2018-05-07T00:46:10.082Z,11.62
2018-05-07T00:48:40.835Z,11.41
2018-05-07T00:51:18.668Z,11.34
2018-05-07T00:53:49.448Z,11.21
2018-05-07T00:56:20.263Z,11.45
2018-05-07T00:58:51.012Z,11.42
2018-05-07T01:01:21.812Z,11.31
2018-05-07T01:03:52.576Z,11.26
2018-05-07T01:06:23.349Z,11.24
2018-05-07T01:08:54.109Z,11.31
2018-05-07T01:11:24.891Z,11.10
2018-05-07T01:13:55.670Z,11.14
2018-05-07T01:16:26.435Z,11.24
2018-05-07T01:18:57.208Z,11.15
2018-05-07T01:21:35.667Z,11.15
2018-05-07T01:24:06.447Z,11.34
2018-05-07T01:26:37.241Z,11.28
2018-05-07T01:29:07.999Z,11.13
2018-05-07T01:31:38.793Z,11.07
2018-05-07T01:34:09.549Z,10.99
2018-05-07T01:36:40.329Z,10.93
2018-05-07T01:39:11.105Z,10.88
2018-05-07T01:41:41.868Z,10.80
2018-05-07T01:44:12.656Z,11.05
2018-05-07T01:46:43.500Z,11.04
2018-05-07T01:49:14.266Z,10.93
2018-05-07T01:51:45.048Z,11.01
2018-05-07T01:54:15.817Z,11.04
2018-05-07T01:56:46.601Z,10.96
2018-05-07T01:59:17.411Z,10.97
2018-05-07T02:01:48.183Z,10.88
2018-05-07T02:04:18.975Z,10.76
2018-05-07T02:06:49.779Z,10.82
2018-05-07T02:09:20.567Z,10.77
2018-05-07T02:11:53.036Z,10.67
2018-05-07T02:14:23.823Z,10.89
2018-05-07T02:16:54.595Z,10.87
2018-05-07T02:19:25.369Z,10.77
2018-05-07T02:21:56.143Z,10.90
2018-05-07T02:24:26.916Z,10.90
2018-05-07T02:26:58.368Z,10.84
2018-05-07T02:29:29.161Z,10.90
2018-05-07T02:31:59.936Z,10.77
2018-05-07T02:34:30.708Z,10.87
2018-05-07T02:37:01.496Z,10.85
2018-05-07T02:39:32.268Z,10.83
2018-05-07T02:42:03.090Z,10.69
2018-05-07T02:44:33.880Z,10.68
2018-05-07T02:47:04.675Z,10.71
2018-05-07T02:49:35.454Z,10.71
2018-05-07T02:52:06.743Z,10.77
2018-05-07T02:54:37.526Z,10.81
2018-05-07T02:57:08.364Z,10.79
2018-05-07T02:59:39.207Z,10.69
2018-05-07T03:02:10.015Z,10.67
2018-05-07T03:04:40.814Z,10.65
2018-05-07T03:07:11.668Z,10.66
2018-05-07T03:09:42.448Z,10.58
2018-05-07T03:12:13.312Z,10.51
2018-05-07T03:14:44.047Z,10.49
2018-05-07T03:17:14.848Z,10.47
2018-05-07T03:19:45.616Z,10.55
2018-05-07T03:22:16.386Z,10.56
2018-05-07T03:24:47.217Z,10.47
2018-05-07T03:27:18.031Z,10.45
2018-05-07T03:29:48.799Z,10.47
2018-05-07T03:32:19.582Z,10.53
2018-05-07T03:34:50.368Z,10.48
2018-05-07T03:37:21.143Z,10.58
2018-05-07T03:39:51.920Z,10.34
2018-05-07T03:42:22.692Z,10.35
2018-05-07T03:44:53.472Z,10.31
2018-05-07T03:47:24.268Z,10.36
2018-05-07T03:49:55.031Z,10.39
2018-05-07T03:52:25.801Z,10.49
2018-05-07T03:54:56.556Z,10.50
2018-05-07T03:57:27.327Z,10.50
2018-05-07T03:59:58.104Z,10.56
2018-05-07T04:02:28.881Z,10.64
2018-05-07T04:04:59.632Z,10.69
2018-05-07T04:07:30.429Z,10.80
2018-05-07T04:10:01.200Z,10.75
2018-05-07T04:12:32.048Z,10.77
2018-05-07T04:15:02.833Z,10.84
2018-05-07T04:17:45.976Z,10.90
2018-05-07T04:20:29.124Z,11.02
2018-05-07T04:23:12.353Z,11.06
2018-05-07T04:25:43.139Z,11.12
2018-05-07T04:28:13.920Z,11.13
2018-05-07T04:30:44.667Z,11.31
2018-05-07T04:33:15.443Z,11.37
2018-05-07T04:35:46.200Z,11.46
2018-05-07T04:38:16.976Z,11.50
2018-05-07T04:40:47.725Z,11.60
2018-05-07T04:43:18.557Z,11.68
2018-05-07T04:45:49.287Z,11.75
2018-05-07T04:48:20.071Z,11.76
2018-05-07T04:50:50.828Z,11.82
2018-05-07T04:53:21.596Z,12.08
2018-05-07T04:55:52.369Z,12.79
2018-05-07T04:58:23.151Z,14.21
2018-05-07T05:00:53.923Z,15.11
2018-05-07T05:03:24.720Z,15.69
2018-05-07T05:05:55.499Z,16.22
2018-05-07T05:08:26.324Z,16.26
2018-05-07T05:10:57.071Z,16.74
2018-05-07T05:13:27.828Z,17.31
2018-05-07T05:15:58.600Z,17.61
2018-05-07T05:18:29.387Z,17.66
2018-05-07T05:21:00.157Z,17.84
2018-05-07T05:23:30.958Z,17.75
2018-05-07T05:26:01.718Z,18.41
2018-05-07T05:28:32.509Z,18.71
2018-05-07T05:31:03.296Z,18.76
2018-05-07T05:33:34.077Z,19.07
2018-05-07T05:36:04.835Z,19.81
2018-05-07T05:38:35.636Z,20.93
2018-05-07T05:41:06.404Z,20.41
2018-05-07T05:43:37.272Z,20.63
2018-05-07T05:46:07.951Z,20.40
2018-05-07T05:48:38.743Z,20.52
2018-05-07T05:51:09.515Z,20.96
2018-05-07T05:53:40.295Z,20.87
2018-05-07T05:56:11.164Z,21.02
2018-05-07T05:58:41.923Z,22.13
2018-05-07T06:01:12.709Z,22.63
2018-05-07T06:03:43.549Z,22.71
2018-05-07T06:06:14.276Z,22.37
2018-05-07T06:08:45.101Z,21.21
2018-05-07T06:11:15.886Z,21.55
2018-05-07T06:13:46.683Z,22.10
2018-05-07T06:16:17.451Z,22.05
2018-05-07T06:18:48.255Z,22.51
2018-05-07T06:21:19.007Z,23.68
2018-05-07T06:23:49.816Z,23.65
2018-05-07T06:26:20.579Z,23.54
2018-05-07T06:28:51.379Z,22.81
2018-05-07T06:31:22.132Z,23.24
2018-05-07T06:33:52.925Z,23.89
2018-05-07T06:36:23.722Z,24.06
2018-05-07T06:38:54.516Z,24.32
2018-05-07T06:41:25.280Z,25.25
2018-05-07T06:43:56.049Z,25.40
2018-05-07T06:46:26.824Z,26.47
2018-05-07T06:48:57.631Z,25.02
2018-05-07T06:51:28.498Z,25.68
2018-05-07T06:53:59.223Z,25.95
2018-05-07T06:56:30.009Z,25.18
2018-05-07T06:59:00.807Z,25.86
2018-05-07T07:01:31.590Z,25.48
2018-05-07T07:04:02.388Z,26.53
2018-05-07T07:06:33.155Z,25.69
2018-05-07T07:09:05.025Z,24.55
2018-05-07T07:11:35.811Z,25.42
2018-05-07T07:14:06.624Z,25.97
2018-05-07T07:16:37.411Z,25.87
2018-05-07T07:19:08.199Z,26.34
2018-05-07T07:21:38.993Z,26.57
2018-05-07T07:24:09.793Z,26.63
2018-05-07T07:26:40.564Z,26.81
2018-05-07T07:29:11.357Z,26.46
2018-05-07T07:31:42.136Z,25.99
2018-05-07T07:34:12.949Z,26.28
2018-05-07T07:36:43.719Z,25.94
2018-05-07T07:39:14.495Z,26.61
2018-05-07T07:41:45.305Z,25.89
2018-05-07T07:44:16.120Z,26.11
2018-05-07T07:46:46.911Z,25.18
2018-05-07T07:49:17.695Z,25.55
2018-05-07T07:51:48.463Z,26.52
2018-05-07T07:54:19.253Z,26.79
2018-05-07T07:56:50.031Z,25.59
2018-05-07T07:59:20.838Z,25.88
2018-05-07T08:01:51.604Z,26.33
2018-05-07T08:04:22.400Z,25.34
2018-05-07T08:06:53.193Z,24.78
2018-05-07T08:09:23.989Z,24.57
2018-05-07T08:11:54.756Z,25.31
2018-05-07T08:14:25.585Z,25.53
2018-05-07T08:16:56.339Z,25.56
2018-05-07T08:19:27.141Z,23.81
2018-05-07T08:21:57.936Z,23.71
2018-05-07T08:24:28.718Z,24.42
2018-05-07T08:26:59.471Z,24.49
2018-05-07T08:29:30.303Z,25.57
2018-05-07T08:32:01.071Z,26.04
2018-05-07T08:34:31.860Z,25.73
2018-05-07T08:37:02.664Z,26.59
2018-05-07T08:39:33.453Z,26.88
2018-05-07T08:42:04.229Z,26.95
2018-05-07T08:44:35.036Z,26.77
2018-05-07T08:47:05.856Z,26.37
2018-05-07T08:49:36.659Z,26.92
2018-05-07T08:52:07.436Z,24.68
2018-05-07T08:54:38.217Z,23.61
2018-05-07T08:57:09.011Z,24.07
2018-05-07T08:59:39.815Z,23.99
2018-05-07T09:02:10.622Z,24.70
2018-05-07T09:04:41.388Z,24.09
2018-05-07T09:07:12.188Z,23.60
2018-05-07T09:09:42.962Z,23.05
2018-05-07T09:12:13.759Z,23.05
2018-05-07T09:14:44.540Z,22.71
2018-05-07T09:17:15.311Z,22.31
2018-05-07T09:19:46.103Z,23.28
2018-05-07T09:22:16.880Z,22.59
2018-05-07T09:24:47.763Z,22.88
2018-05-07T09:27:18.490Z,24.20
2018-05-07T09:29:49.263Z,26.09
2018-05-07T09:32:20.033Z,26.71
2018-05-07T09:34:50.832Z,26.17
2018-05-07T09:37:21.616Z,25.64
2018-05-07T09:39:52.416Z,25.69
2018-05-07T09:42:23.187Z,27.11
2018-05-07T09:44:53.997Z,27.70
2018-05-07T09:47:24.784Z,28.28
2018-05-07T09:49:55.588Z,26.51
2018-05-07T09:52:26.367Z,26.64
2018-05-07T09:54:57.184Z,26.59
2018-05-07T09:57:27.963Z,25.63
2018-05-07T09:59:58.777Z,23.91
2018-05-07T10:02:29.667Z,23.55
2018-05-07T10:05:00.507Z,24.55
2018-05-07T10:07:31.367Z,25.30
2018-05-07T10:10:02.232Z,26.15
2018-05-07T10:12:32.987Z,27.28
2018-05-07T10:15:03.796Z,27.71
2018-05-07T10:17:34.572Z,28.22
2018-05-07T10:20:12.473Z,28.05
2018-05-07T10:22:43.272Z,27.52
2018-05-07T10:25:14.070Z,26.77
2018-05-07T10:27:44.837Z,27.17
2018-05-07T10:30:15.631Z,26.89
2018-05-07T10:32:46.412Z,27.18
2018-05-07T10:35:17.292Z,27.86
2018-05-07T10:37:47.994Z,26.94
2018-05-07T10:40:18.857Z,27.28
2018-05-07T10:42:49.730Z,27.07
2018-05-07T10:45:20.491Z,27.20
2018-05-07T10:47:51.255Z,27.17
2018-05-07T10:50:22.103Z,27.69
2018-05-07T10:52:52.858Z,26.59
2018-05-07T10:55:23.661Z,26.57
2018-05-07T10:57:54.429Z,26.12
2018-05-07T11:00:25.220Z,27.56
2018-05-07T11:02:55.987Z,27.71
2018-05-07T11:05:26.851Z,27.69
2018-05-07T11:07:57.632Z,28.60
2018-05-07T11:10:28.448Z,28.00
2018-05-07T11:12:59.223Z,27.28
2018-05-07T11:15:30.026Z,28.30
2018-05-07T11:18:00.803Z,28.95
2018-05-07T11:20:31.593Z,30.36
2018-05-07T11:23:02.379Z,29.58
2018-05-07T11:25:33.167Z,29.84
2018-05-07T11:28:03.937Z,30.51
2018-05-07T11:30:34.704Z,29.42
2018-05-07T11:33:05.477Z,28.84
2018-05-07T11:35:36.292Z,28.55
2018-05-07T11:38:07.061Z,27.96
2018-05-07T11:40:37.851Z,27.12
2018-05-07T11:43:08.610Z,28.47
2018-05-07T11:45:39.400Z,28.49
2018-05-07T11:48:10.218Z,29.18
2018-05-07T11:50:41.014Z,29.54
2018-05-07T11:53:11.781Z,30.10
2018-05-07T11:55:42.563Z,30.15
2018-05-07T11:58:13.374Z,29.82
2018-05-07T12:00:44.171Z,30.23
2018-05-07T12:03:14.939Z,31.37
2018-05-07T12:05:45.747Z,31.61
2018-05-07T12:08:16.726Z,31.63
2018-05-07T12:10:47.527Z,32.17
2018-05-07T12:13:18.306Z,31.94
2018-05-07T12:15:49.402Z,32.52
2018-05-07T12:18:20.147Z,31.83
2018-05-07T12:20:50.943Z,30.66
2018-05-07T12:23:21.793Z,30.84
2018-05-07T12:25:52.502Z,30.97
2018-05-07T12:28:23.255Z,31.21
2018-05-07T12:30:54.027Z,32.72
2018-05-07T12:33:24.776Z,33.14
2018-05-07T12:35:55.548Z,33.13
2018-05-07T12:38:26.317Z,30.74
2018-05-07T12:40:57.113Z,32.34
2018-05-07T12:43:27.881Z,32.59
2018-05-07T12:45:58.662Z,33.11
2018-05-07T12:48:29.428Z,34.28
2018-05-07T12:51:00.203Z,33.44
2018-05-07T12:53:30.963Z,32.78
2018-05-07T12:56:02.250Z,31.97
2018-05-07T12:58:33.165Z,31.65
2018-05-07T13:01:03.940Z,32.21
2018-05-07T13:03:34.707Z,33.15
2018-05-07T13:06:05.524Z,34.05
2018-05-07T13:08:36.332Z,35.27
2018-05-07T13:11:07.119Z,34.92
2018-05-07T13:13:37.876Z,33.55
2018-05-07T13:16:08.647Z,32.90
2018-05-07T13:18:40.435Z,34.83
2018-05-07T13:21:11.960Z,34.65
2018-05-07T13:23:42.737Z,33.55
2018-05-07T13:26:13.531Z,33.63
2018-05-07T13:28:44.310Z,33.85
2018-05-07T13:31:16.727Z,34.47
2018-05-07T13:33:47.515Z,34.54
2018-05-07T13:36:18.311Z,33.91
2018-05-07T13:38:49.072Z,32.06
2018-05-07T13:41:19.849Z,32.15
2018-05-07T13:43:50.603Z,33.45
2018-05-07T13:46:21.377Z,33.97
2018-05-07T13:48:52.150Z,33.65
2018-05-07T13:51:22.934Z,33.19
2018-05-07T13:53:53.689Z,32.68
2018-05-07T13:56:24.520Z,33.47
2018-05-07T13:58:55.316Z,33.77
2018-05-07T14:01:26.120Z,34.78
2018-05-07T14:03:56.880Z,34.84
2018-05-07T14:06:27.666Z,34.64
2018-05-07T14:08:58.459Z,34.21
2018-05-07T14:11:29.276Z,35.28
2018-05-07T14:14:00.048Z,35.27
2018-05-07T14:16:30.831Z,34.37
2018-05-07T14:19:01.585Z,34.27
2018-05-07T14:21:32.375Z,34.52
2018-05-07T14:24:03.121Z,35.99
2018-05-07T14:26:33.914Z,35.73
2018-05-07T14:29:04.684Z,34.45
2018-05-07T14:31:35.507Z,34.83
2018-05-07T14:34:13.345Z,34.93
2018-05-07T14:36:44.125Z,32.90
2018-05-07T14:39:14.887Z,32.44
2018-05-07T14:41:45.672Z,32.75
2018-05-07T14:44:16.461Z,32.92
2018-05-07T14:46:47.264Z,32.63
2018-05-07T14:49:18.057Z,30.86
2018-05-07T14:51:48.844Z,31.75
2018-05-07T14:54:19.619Z,31.22
2018-05-07T14:56:50.405Z,31.41
2018-05-07T14:59:21.160Z,30.80
2018-05-07T15:01:52.684Z,30.25
2018-05-07T15:04:23.479Z,30.60
2018-05-07T15:06:54.292Z,30.03
2018-05-07T15:09:25.071Z,29.94
2018-05-07T15:11:55.981Z,30.50
2018-05-07T15:14:26.762Z,29.62
2018-05-07T15:16:57.551Z,29.75
2018-05-07T15:19:28.295Z,29.71
2018-05-07T15:21:59.074Z,30.29
2018-05-07T15:24:39.934Z,29.52
2018-05-07T15:27:10.742Z,29.83
2018-05-07T15:29:41.537Z,30.10
2018-05-07T15:32:12.333Z,30.38
2018-05-07T15:34:43.124Z,30.40
2018-05-07T15:37:13.937Z,29.94
2018-05-07T15:39:44.728Z,30.09
2018-05-07T15:42:15.535Z,31.25
2018-05-07T15:44:46.333Z,30.39
2018-05-07T15:47:17.135Z,29.14
2018-05-07T15:49:47.913Z,29.18
2018-05-07T15:52:18.711Z,30.58
2018-05-07T15:54:49.479Z,30.05
2018-05-07T15:57:20.305Z,29.59
2018-05-07T15:59:51.051Z,30.19
2018-05-07T16:02:22.821Z,30.77
2018-05-07T16:04:53.577Z,30.18
2018-05-07T16:07:25.148Z,29.61
2018-05-07T16:09:55.960Z,29.18
2018-05-07T16:12:26.729Z,29.72
2018-05-07T16:14:57.524Z,29.16
2018-05-07T16:17:28.344Z,28.43
2018-05-07T16:19:59.219Z,27.91
2018-05-07T16:22:29.891Z,27.31
2018-05-07T16:25:00.680Z,26.79
2018-05-07T16:27:31.510Z,26.84
2018-05-07T16:30:02.297Z,26.58
2018-05-07T16:32:33.158Z,26.45
2018-05-07T16:35:03.940Z,26.34
2018-05-07T16:37:34.763Z,25.86
2018-05-07T16:40:07.725Z,25.65
2018-05-07T16:42:38.627Z,25.75
2018-05-07T16:45:09.357Z,25.56
2018-05-07T16:47:40.156Z,25.44
2018-05-07T16:50:10.962Z,25.26
2018-05-07T16:52:41.785Z,25.31
2018-05-07T16:55:12.556Z,24.95
2018-05-07T16:57:43.352Z,24.79
2018-05-07T17:00:14.120Z,24.76
2018-05-07T17:02:44.887Z,24.57
2018-05-07T17:05:15.654Z,24.45
2018-05-07T17:07:46.456Z,24.49
2018-05-07T17:10:17.207Z,24.36
2018-05-07T17:12:48.008Z,24.13
2018-05-07T17:15:18.779Z,24.25
2018-05-07T17:17:49.594Z,24.22
2018-05-07T17:20:20.471Z,24.17
2018-05-07T17:22:51.272Z,24.15
2018-05-07T17:25:22.032Z,24.08
2018-05-07T17:27:58.819Z,24.09
2018-05-07T17:30:29.601Z,24.02
2018-05-07T17:33:00.413Z,24.00
2018-05-07T17:35:31.172Z,23.93
2018-05-07T17:38:01.961Z,23.88
2018-05-07T17:40:32.727Z,23.81
2018-05-07T17:43:03.585Z,23.67
2018-05-07T17:48:50.162Z,23.53
2018-05-07T17:51:20.934Z,23.46
2018-05-07T17:53:51.733Z,23.39
2018-05-07T17:56:22.488Z,23.33
2018-05-07T17:58:53.486Z,23.20
2018-05-07T18:01:24.257Z,23.08
2018-05-07T18:03:55.115Z,23.08
2018-05-07T18:06:26.037Z,22.96
2018-05-07T18:08:56.815Z,22.80
2018-05-07T18:11:27.601Z,22.74
2018-05-07T18:13:58.363Z,22.77
2018-05-07T18:16:29.120Z,22.69
2018-05-07T18:18:59.897Z,22.55
2018-05-07T18:21:30.665Z,22.45
2018-05-07T18:24:01.448Z,22.41
2018-05-07T18:26:32.250Z,22.33
2018-05-07T18:29:03.027Z,22.31
2018-05-07T18:31:33.785Z,22.16
2018-05-07T18:34:04.628Z,22.04
2018-05-07T18:36:35.415Z,21.96
2018-05-07T18:39:06.221Z,21.65
2018-05-07T18:41:37.004Z,21.62
2018-05-07T18:44:07.780Z,21.76
2018-05-07T18:46:38.587Z,21.69
2018-05-07T18:49:09.429Z,21.63
2018-05-07T18:51:40.210Z,21.57
2018-05-07T18:54:11.009Z,21.45
2018-05-07T18:56:41.827Z,21.40
2018-05-07T18:59:12.663Z,21.42
2018-05-07T19:01:43.439Z,21.43
2018-05-07T19:04:14.277Z,21.40
2018-05-07T19:06:45.072Z,21.42
2018-05-07T19:09:15.844Z,21.35
2018-05-07T19:11:46.616Z,21.38
2018-05-07T19:14:17.429Z,21.34
2018-05-07T19:16:48.232Z,21.24
2018-05-07T19:19:19.025Z,21.16
2018-05-07T19:21:49.903Z,21.21
2018-05-07T19:24:20.729Z,21.19
2018-05-07T19:26:51.571Z,21.20
2018-05-07T19:29:22.384Z,21.19
2018-05-07T19:31:53.154Z,21.09
2018-05-07T19:34:23.969Z,20.94
2018-05-07T19:36:54.799Z,20.98
2018-05-07T19:39:25.589Z,20.91
2018-05-07T19:41:56.348Z,20.82
2018-05-07T19:44:27.156Z,20.88
2018-05-07T19:46:57.939Z,20.81
2018-05-07T19:49:28.766Z,20.83
2018-05-07T19:51:59.520Z,20.75
2018-05-07T19:54:30.332Z,20.72
2018-05-07T19:57:01.110Z,20.66
2018-05-07T19:59:31.932Z,20.71
2018-05-07T20:02:02.725Z,20.61
2018-05-07T20:04:33.521Z,20.56
2018-05-07T20:07:04.290Z,20.46
2018-05-07T20:09:35.146Z,20.40
2018-05-07T20:12:05.952Z,20.36
2018-05-07T20:14:36.777Z,20.26
2018-05-07T20:17:07.643Z,20.30
2018-05-07T20:19:38.463Z,20.11
2018-05-07T20:22:09.821Z,20.07
2018-05-07T20:24:40.689Z,20.07
2018-05-07T20:27:11.508Z,20.03
2018-05-07T20:29:42.324Z,19.91
2018-05-07T20:32:13.124Z,19.96
2018-05-07T20:34:43.955Z,19.92
2018-05-07T20:37:14.754Z,19.93
2018-05-07T20:39:45.556Z,20.02
2018-05-07T20:42:16.324Z,19.87
2018-05-07T20:44:47.155Z,19.81
2018-05-07T20:47:17.961Z,19.71
2018-05-07T20:49:48.774Z,19.54
2018-05-07T20:52:19.556Z,19.57
2018-05-07T20:54:50.339Z,19.59
2018-05-07T20:57:21.118Z,19.55
2018-05-07T20:59:51.946Z,19.44
2018-05-07T21:02:22.705Z,19.34
2018-05-07T21:04:53.476Z,19.35
2018-05-07T21:07:31.121Z,19.19
2018-05-07T21:10:01.954Z,19.24
2018-05-07T21:12:32.734Z,19.13
2018-05-07T21:15:03.506Z,19.14
2018-05-07T21:17:34.313Z,19.02
2018-05-07T21:20:05.183Z,18.91
2018-05-07T21:22:35.995Z,18.80
2018-05-07T21:25:06.805Z,18.73
2018-05-07T21:27:37.623Z,18.69
2018-05-07T21:30:08.420Z,18.72
2018-05-07T21:32:39.212Z,18.61
2018-05-07T21:35:10.045Z,18.68
2018-05-07T21:37:40.860Z,18.64
2018-05-07T21:40:11.645Z,18.52
2018-05-07T21:42:42.453Z,18.51
2018-05-07T21:45:13.251Z,18.55
2018-05-07T21:47:44.028Z,18.64
2018-05-07T21:50:14.813Z,18.47
2018-05-07T21:52:45.591Z,18.37
2018-05-07T21:55:16.427Z,18.31
2018-05-07T21:57:47.193Z,18.20
2018-05-07T22:00:17.989Z,18.02
2018-05-07T22:02:48.771Z,17.85
2018-05-07T22:05:19.572Z,17.70
2018-05-07T22:07:50.411Z,17.36
2018-05-07T22:10:21.211Z,17.10
2018-05-07T22:12:52.137Z,17.00
2018-05-07T22:15:23.021Z,16.86
2018-05-07T22:17:53.812Z,16.69
2018-05-07T22:20:24.601Z,16.53
2018-05-07T22:22:55.405Z,16.51
2018-05-07T22:25:26.359Z,16.41
2018-05-07T22:27:57.138Z,16.26
2018-05-07T22:30:27.967Z,16.02
2018-05-07T22:32:58.763Z,15.68
2018-05-07T22:38:07.425Z,15.36
2018-05-07T22:40:38.250Z,15.26
2018-05-07T22:43:11.233Z,15.10
2018-05-07T22:45:42.233Z,15.03
2018-05-07T22:48:13.021Z,14.89
2018-05-07T22:50:43.870Z,14.86
2018-05-07T22:53:14.643Z,14.84
2018-05-07T22:55:45.444Z,14.78
2018-05-07T22:58:16.227Z,14.78
2018-05-07T23:00:47.118Z,14.95
2018-05-07T23:03:17.811Z,15.04
2018-05-07T23:05:48.723Z,14.94
2018-05-07T23:08:19.503Z,14.88
2018-05-07T23:10:50.363Z,14.86
2018-05-07T23:13:21.145Z,14.87
2018-05-07T23:15:51.918Z,15.01
2018-05-07T23:18:22.695Z,14.97
2018-05-07T23:20:53.524Z,14.70
2018-05-07T23:23:24.292Z,14.34
2018-05-07T23:25:55.123Z,14.15
2018-05-07T23:28:25.979Z,13.98
2018-05-07T23:30:56.831Z,13.90
2018-05-07T23:33:27.622Z,13.91
2018-05-07T23:35:58.432Z,14.02
2018-05-07T23:38:29.214Z,13.97
2018-05-07T23:41:00.012Z,13.89
2018-05-07T23:43:30.792Z,13.78
2018-05-07T23:46:01.611Z,13.63
2018-05-07T23:48:32.426Z,13.63
2018-05-07T23:51:03.228Z,13.51
2018-05-07T23:53:34.004Z,13.60
2018-05-07T23:56:04.823Z,13.31
2018-05-07T23:58:35.635Z,13.07
